AirNav   Air Wisconsin pilot careers
 
 1761 users online  

UT56 American Fork Hospital Heliport
American Fork, Utah, USA

GOING TO AMERICAN FORK?


FAA INFORMATION EFFECTIVE 01 FEBRUARY 2018

Location

FAA Identifier: UT56
Lat/Long: 40-22-46.8700N / 111-46-06.9900W
40-22.781167N / 111-46.116500W
40.3796861 / -111.7686083
(estimated)
Elevation: 4603 ft. / 1403 m (estimated)
Variation: 14E (1986)
Time zone: UTC -7 (UTC -6 during Daylight Saving Time)
Zip code: 84003

Heliport Operations

Heliport use: Private use, MEDICAL USE.
Activation date: 04/1986
Control tower: no
ARTCC: SALT LAKE CITY CENTER
FSS: CEDAR CITY FLIGHT SERVICE STATION
Attendance: UNATNDD
Wind indicator: yes
Segmented circle: no

Heliport Communications

WX AWOS-3PT at PVU (10 nm S): 135.175 (801-373-9782)
WX AWOS-3PT at HCR (17 nm E): 124.825 (435-657-0892)
WX AWOS-3 at U42 (18 nm NW): 134.425 (801-562-0271)

Nearby radio navigation aids

VOR radial/distance  VOR name  Freq  Var
FFUr035/10.1FAIRFIELD VORTAC116.6016E
PVUr333/10.1PROVO VOR/DME108.4015E
TCHr145/29.9WASATCH VORTAC116.8016E

Heliport Services

Runway Information

Helipad H1

Dimensions: 85 x 65 ft. / 26 x 20 m
Surface: asphalt
Latitude: 40-22.781167N
Longitude: 111-46.116500W
Elevation: 4603.0 ft.
Traffic pattern: leftleft

Heliport Ownership and Management from official FAA records

Ownership: Privately-owned
Owner: AMERICAN FORK HOSPITAL
170 NORTH 1100 EAST
AMERICAN FORK, UT 84003
Phone 801-855-3300
Manager: JASON WILSON
170 NORTH 1100 EAST
AMERICAN FORK, UT 84003
Phone 801-855-3300

Additional Remarks

A52-H1 75' PLINE 300' S; 60' BLDG-L 200' EAST.

Instrument Procedures

There are no published instrument procedures at UT56.

Some nearby airports with instrument procedures:

KPVU - Provo Municipal Airport (10 nm S)
KHCR - Heber City Municipal Airport - Russ McDonald Field (17 nm E)
U42 - South Valley Regional Airport (18 nm NW)
KSLC - Salt Lake City International Airport (26 nm N)
KTVY - Bolinder Field-Tooele Valley Airport (30 nm NW)
 
Loc | Ops | Rwys | IFR | FBO | Links
Com | Nav | Svcs | Stats | Notes

TAC Air
 
Area around UT56 (American Fork Hospital Heliport)
 
Road maps at: MapQuest Bing Google
 
Aerial photo
No photo
 
Sectional chart

 
Airport distance calculator
Flying to American Fork Hospital Heliport? Find the distance to fly.

From to UT56

Sunrise and sunset
Times for 20-Feb-2018
 Local
(UTC-7)
 Zulu
(UTC)
Morning civil twilight06:4713:47
Sunrise07:1514:15
Sunset18:0701:07
Evening civil twilight18:3501:35

Current date and time
Zulu (UTC)  20-Feb-2018 20:06:44
Local (UTC-7)  20-Feb-2018 13:06:44
 
METAR
KPVU 
10nm S 
201956Z 19005KT 10SM FEW075 M04/M11 A3009 RMK AO2 SLP228 T10441106
KHCR 
17nm E 
202000Z AUTO 00000KT 10SM SCT016 SCT022 BKN030 M06/M13 A2997 RMK AO2
KU42 
18nm NW 
201955Z AUTO 34008KT 10SM SCT020 BKN026 OVC033 M06/M10 A3008 RMK AO1 P0004 T10621097
TAF
KPVU 
10nm S 
201740Z 2018/2118 VRB05KT P6SM VCSH SCT020 BKN050 TEMPO 2018/2020 BKN015 FM202100 VRB05KT P6SM SCT050 BKN080 FM210100 VRB04KT P6SM SCT060 SCT120
KHCR 
17nm E 
201740Z 2018/2118 VRB04KT P6SM VCSH SCT020 SCT070 FM202000 23008KT P6SM SCT030 SCT070 FM210200 VRB04KT P6SM SCT060 SCT120
NOTAMs
Click for the latest NOTAMs
NOTAMs are issued by the DoD/FAA and will open in a separate window not controlled by AirNav.

 

 
 

Would you like to see your business listed on this page?

 If your business provides an interesting product or service to pilots, flight crews, aircraft, or users of the American Fork Hospital Heliport, you should consider listing it here.  To start the listing process, click on the button below
 
Add a business
 

Other Pages about American Fork Hospital Heliport

Update a link
 
Copyright © AirNav, LLC. All rights reserved. Privacy Policy  Contact